sensor_id;sensor_type;location;lat;lon;timestamp;temperature;humidity
15343;DHT22;7771;48.478;8.936;2023-03-03T00:00:07;3.90;99.90
15343;DHT22;7771;48.478;8.936;2023-03-03T00:02:34;3.90;99.90
15343;DHT22;7771;48.478;8.936;2023-03-03T00:05:02;3.90;99.90
15343;DHT22;7771;48.478;8.936;2023-03-03T00:07:28;3.90;99.90
15343;DHT22;7771;48.478;8.936;2023-03-03T00:09:55;3.90;99.90
15343;DHT22;7771;48.478;8.936;2023-03-03T00:12:24;3.90;99.90
15343;DHT22;7771;48.478;8.936;2023-03-03T00:14:50;3.90;99.90
15343;DHT22;7771;48.478;8.936;2023-03-03T00:17:26;3.90;99.90
15343;DHT22;7771;48.478;8.936;2023-03-03T00:19:52;3.90;99.90
15343;DHT22;7771;48.478;8.936;2023-03-03T00:22:24;3.90;99.90
15343;DHT22;7771;48.478;8.936;2023-03-03T00:24:47;3.90;99.90
15343;DHT22;7771;48.478;8.936;2023-03-03T00:27:19;3.90;99.90
15343;DHT22;7771;48.478;8.936;2023-03-03T00:29:46;3.90;99.90
15343;DHT22;7771;48.478;8.936;2023-03-03T00:32:21;3.90;99.90
15343;DHT22;7771;48.478;8.936;2023-03-03T00:34:49;3.90;99.90
15343;DHT22;7771;48.478;8.936;2023-03-03T00:37:22;3.90;99.90
15343;DHT22;7771;48.478;8.936;2023-03-03T00:39:47;3.90;99.90
15343;DHT22;7771;48.478;8.936;2023-03-03T00:42:15;3.90;99.90
15343;DHT22;7771;48.478;8.936;2023-03-03T00:44:43;3.90;99.90
15343;DHT22;7771;48.478;8.936;2023-03-03T00:47:22;3.90;99.90
15343;DHT22;7771;48.478;8.936;2023-03-03T00:49:43;3.90;99.90
15343;DHT22;7771;48.478;8.936;2023-03-03T00:52:15;3.90;99.90
15343;DHT22;7771;48.478;8.936;2023-03-03T00:54:40;3.90;99.90
15343;DHT22;7771;48.478;8.936;2023-03-03T00:57:07;3.90;99.90
15343;DHT22;7771;48.478;8.936;2023-03-03T00:59:34;3.90;99.90
15343;DHT22;7771;48.478;8.936;2023-03-03T01:02:00;3.90;99.90
15343;DHT22;7771;48.478;8.936;2023-03-03T01:04:28;3.80;99.90
15343;DHT22;7771;48.478;8.936;2023-03-03T01:06:55;3.90;99.90
15343;DHT22;7771;48.478;8.936;2023-03-03T01:09:22;3.90;99.90
15343;DHT22;7771;48.478;8.936;2023-03-03T01:11:49;3.90;99.90
15343;DHT22;7771;48.478;8.936;2023-03-03T01:14:16;3.80;99.90
15343;DHT22;7771;48.478;8.936;2023-03-03T01:16:44;3.80;99.90
15343;DHT22;7771;48.478;8.936;2023-03-03T01:19:11;3.80;99.90
15343;DHT22;7771;48.478;8.936;2023-03-03T01:21:38;3.80;99.90
15343;DHT22;7771;48.478;8.936;2023-03-03T01:24:05;3.80;99.90
15343;DHT22;7771;48.478;8.936;2023-03-03T01:26:32;3.80;99.90
15343;DHT22;7771;48.478;8.936;2023-03-03T01:28:59;3.80;99.90
15343;DHT22;7771;48.478;8.936;2023-03-03T01:31:26;3.80;99.90
15343;DHT22;7771;48.478;8.936;2023-03-03T01:33:53;3.80;99.90
15343;DHT22;7771;48.478;8.936;2023-03-03T01:36:23;3.80;99.90
15343;DHT22;7771;48.478;8.936;2023-03-03T01:38:49;3.80;99.90
15343;DHT22;7771;48.478;8.936;2023-03-03T01:41:15;3.80;99.90
15343;DHT22;7771;48.478;8.936;2023-03-03T01:43:44;3.80;99.90
15343;DHT22;7771;48.478;8.936;2023-03-03T01:46:25;3.80;99.90
15343;DHT22;7771;48.478;8.936;2023-03-03T01:48:46;3.70;99.90
15343;DHT22;7771;48.478;8.936;2023-03-03T01:51:19;3.70;99.90
15343;DHT22;7771;48.478;8.936;2023-03-03T01:53:45;3.70;99.90
15343;DHT22;7771;48.478;8.936;2023-03-03T01:56:11;3.60;99.90
15343;DHT22;7771;48.478;8.936;2023-03-03T01:58:40;3.60;99.90
15343;DHT22;7771;48.478;8.936;2023-03-03T02:01:07;3.60;99.90
15343;DHT22;7771;48.478;8.936;2023-03-03T02:03:33;3.50;99.90
15343;DHT22;7771;48.478;8.936;2023-03-03T02:06:03;3.50;99.90
15343;DHT22;7771;48.478;8.936;2023-03-03T02:08:33;3.50;99.90
15343;DHT22;7771;48.478;8.936;2023-03-03T02:10:58;3.50;99.90
15343;DHT22;7771;48.478;8.936;2023-03-03T02:13:25;3.50;99.90
15343;DHT22;7771;48.478;8.936;2023-03-03T02:15:52;3.40;99.90
15343;DHT22;7771;48.478;8.936;2023-03-03T02:18:19;3.40;99.90
15343;DHT22;7771;48.478;8.936;2023-03-03T02:23:44;3.40;99.90
15343;DHT22;7771;48.478;8.936;2023-03-03T02:26:10;3.50;99.90
15343;DHT22;7771;48.478;8.936;2023-03-03T02:28:36;3.40;99.90
15343;DHT22;7771;48.478;8.936;2023-03-03T02:31:04;3.40;99.90
15343;DHT22;7771;48.478;8.936;2023-03-03T02:33:31;3.30;99.90
15343;DHT22;7771;48.478;8.936;2023-03-03T02:35:58;3.30;99.90
15343;DHT22;7771;48.478;8.936;2023-03-03T02:38:36;3.30;99.90
15343;DHT22;7771;48.478;8.936;2023-03-03T02:42:12;3.30;99.90
15343;DHT22;7771;48.478;8.936;2023-03-03T02:43:50;3.30;99.90
15343;DHT22;7771;48.478;8.936;2023-03-03T02:46:14;3.30;99.90
15343;DHT22;7771;48.478;8.936;2023-03-03T02:48:41;3.30;99.90
15343;DHT22;7771;48.478;8.936;2023-03-03T02:51:08;3.30;99.90
15343;DHT22;7771;48.478;8.936;2023-03-03T02:53:34;3.30;99.90
15343;DHT22;7771;48.478;8.936;2023-03-03T02:56:01;3.30;99.90
15343;DHT22;7771;48.478;8.936;2023-03-03T02:58:28;3.30;99.90
15343;DHT22;7771;48.478;8.936;2023-03-03T03:00:55;3.30;99.90
15343;DHT22;7771;48.478;8.936;2023-03-03T03:03:23;3.30;99.90
15343;DHT22;7771;48.478;8.936;2023-03-03T03:05:50;3.30;99.90
15343;DHT22;7771;48.478;8.936;2023-03-03T03:08:18;3.20;99.90
15343;DHT22;7771;48.478;8.936;2023-03-03T03:10:44;3.20;99.90
15343;DHT22;7771;48.478;8.936;2023-03-03T03:13:11;3.30;99.90
15343;DHT22;7771;48.478;8.936;2023-03-03T03:15:38;3.20;99.90
15343;DHT22;7771;48.478;8.936;2023-03-03T03:18:05;3.20;99.90
15343;DHT22;7771;48.478;8.936;2023-03-03T03:20:35;3.20;99.90
15343;DHT22;7771;48.478;8.936;2023-03-03T03:23:01;3.20;99.90
15343;DHT22;7771;48.478;8.936;2023-03-03T03:25:29;3.20;99.90
15343;DHT22;7771;48.478;8.936;2023-03-03T03:27:57;3.20;99.90
15343;DHT22;7771;48.478;8.936;2023-03-03T03:30:24;3.20;99.90
15343;DHT22;7771;48.478;8.936;2023-03-03T03:32:51;3.20;99.90
15343;DHT22;7771;48.478;8.936;2023-03-03T03:35:17;3.30;99.90
15343;DHT22;7771;48.478;8.936;2023-03-03T03:37:45;3.20;99.90
15343;DHT22;7771;48.478;8.936;2023-03-03T03:40:11;3.30;99.90
15343;DHT22;7771;48.478;8.936;2023-03-03T03:42:38;3.30;99.90
15343;DHT22;7771;48.478;8.936;2023-03-03T03:45:06;3.30;99.90
15343;DHT22;7771;48.478;8.936;2023-03-03T03:47:35;3.30;99.90
15343;DHT22;7771;48.478;8.936;2023-03-03T03:50:02;3.30;99.90
15343;DHT22;7771;48.478;8.936;2023-03-03T03:52:28;3.30;99.90
15343;DHT22;7771;48.478;8.936;2023-03-03T03:54:56;3.30;99.90
15343;DHT22;7771;48.478;8.936;2023-03-03T03:57:23;3.30;99.90
15343;DHT22;7771;48.478;8.936;2023-03-03T03:59:50;3.30;99.90
15343;DHT22;7771;48.478;8.936;2023-03-03T04:02:17;3.30;99.90
15343;DHT22;7771;48.478;8.936;2023-03-03T04:04:44;3.40;99.90
15343;DHT22;7771;48.478;8.936;2023-03-03T04:07:11;3.40;99.90
15343;DHT22;7771;48.478;8.936;2023-03-03T04:09:38;3.40;99.90
15343;DHT22;7771;48.478;8.936;2023-03-03T04:12:05;3.30;99.90
15343;DHT22;7771;48.478;8.936;2023-03-03T04:14:32;3.40;99.90
15343;DHT22;7771;48.478;8.936;2023-03-03T04:16:59;3.40;99.90
15343;DHT22;7771;48.478;8.936;2023-03-03T04:19:25;3.40;99.90
15343;DHT22;7771;48.478;8.936;2023-03-03T04:21:52;3.40;99.90
15343;DHT22;7771;48.478;8.936;2023-03-03T04:24:18;3.30;99.90
15343;DHT22;7771;48.478;8.936;2023-03-03T04:26:45;3.40;99.90
15343;DHT22;7771;48.478;8.936;2023-03-03T04:29:11;3.40;99.90
15343;DHT22;7771;48.478;8.936;2023-03-03T04:31:39;3.40;99.90
15343;DHT22;7771;48.478;8.936;2023-03-03T04:34:06;3.40;99.90
15343;DHT22;7771;48.478;8.936;2023-03-03T04:36:33;3.50;99.90
15343;DHT22;7771;48.478;8.936;2023-03-03T04:39:00;3.50;99.90
15343;DHT22;7771;48.478;8.936;2023-03-03T04:41:28;3.50;99.90
15343;DHT22;7771;48.478;8.936;2023-03-03T04:43:56;3.60;99.90
15343;DHT22;7771;48.478;8.936;2023-03-03T04:46:23;3.50;99.90
15343;DHT22;7771;48.478;8.936;2023-03-03T04:48:50;3.50;99.90
15343;DHT22;7771;48.478;8.936;2023-03-03T04:51:17;3.50;99.90
15343;DHT22;7771;48.478;8.936;2023-03-03T04:53:44;3.50;99.90
15343;DHT22;7771;48.478;8.936;2023-03-03T04:56:11;3.50;99.90
15343;DHT22;7771;48.478;8.936;2023-03-03T04:58:43;3.50;99.90
15343;DHT22;7771;48.478;8.936;2023-03-03T05:01:12;3.50;99.90
15343;DHT22;7771;48.478;8.936;2023-03-03T05:03:39;3.50;99.90
15343;DHT22;7771;48.478;8.936;2023-03-03T05:06:06;3.60;99.90
15343;DHT22;7771;48.478;8.936;2023-03-03T05:08:33;3.60;99.90
15343;DHT22;7771;48.478;8.936;2023-03-03T05:11:00;3.60;99.90
15343;DHT22;7771;48.478;8.936;2023-03-03T05:13:27;3.60;99.90
15343;DHT22;7771;48.478;8.936;2023-03-03T05:15:54;3.60;99.90
15343;DHT22;7771;48.478;8.936;2023-03-03T05:18:21;3.70;99.90
15343;DHT22;7771;48.478;8.936;2023-03-03T05:20:48;3.70;99.90
15343;DHT22;7771;48.478;8.936;2023-03-03T05:23:15;3.70;99.90
15343;DHT22;7771;48.478;8.936;2023-03-03T05:25:43;3.70;99.90
15343;DHT22;7771;48.478;8.936;2023-03-03T05:28:10;3.70;99.90
15343;DHT22;7771;48.478;8.936;2023-03-03T05:30:38;3.80;99.90
15343;DHT22;7771;48.478;8.936;2023-03-03T05:33:04;3.80;99.90
15343;DHT22;7771;48.478;8.936;2023-03-03T05:35:31;3.80;99.90
15343;DHT22;7771;48.478;8.936;2023-03-03T05:37:57;3.70;99.90
15343;DHT22;7771;48.478;8.936;2023-03-03T05:40:26;3.80;99.90
15343;DHT22;7771;48.478;8.936;2023-03-03T05:42:50;3.80;99.90
15343;DHT22;7771;48.478;8.936;2023-03-03T05:45:17;3.80;99.90
15343;DHT22;7771;48.478;8.936;2023-03-03T05:47:45;3.80;99.90
15343;DHT22;7771;48.478;8.936;2023-03-03T05:50:11;3.70;99.90
15343;DHT22;7771;48.478;8.936;2023-03-03T05:52:38;3.70;99.90
15343;DHT22;7771;48.478;8.936;2023-03-03T05:55:06;3.70;99.90
15343;DHT22;7771;48.478;8.936;2023-03-03T05:57:32;3.70;99.90
15343;DHT22;7771;48.478;8.936;2023-03-03T06:00:00;3.70;99.90
15343;DHT22;7771;48.478;8.936;2023-03-03T06:02:26;3.70;99.90
15343;DHT22;7771;48.478;8.936;2023-03-03T06:04:53;3.70;99.90
15343;DHT22;7771;48.478;8.936;2023-03-03T06:07:22;3.70;99.90
15343;DHT22;7771;48.478;8.936;2023-03-03T06:09:49;3.70;99.90
15343;DHT22;7771;48.478;8.936;2023-03-03T06:12:15;3.70;99.90
15343;DHT22;7771;48.478;8.936;2023-03-03T06:14:42;3.70;99.90
15343;DHT22;7771;48.478;8.936;2023-03-03T06:17:09;3.70;99.90
15343;DHT22;7771;48.478;8.936;2023-03-03T06:19:36;3.80;99.90
15343;DHT22;7771;48.478;8.936;2023-03-03T06:22:04;3.80;99.90
15343;DHT22;7771;48.478;8.936;2023-03-03T06:24:31;3.80;99.90
15343;DHT22;7771;48.478;8.936;2023-03-03T06:26:59;3.90;99.90
15343;DHT22;7771;48.478;8.936;2023-03-03T06:29:25;3.90;99.90
15343;DHT22;7771;48.478;8.936;2023-03-03T06:31:53;3.90;99.90
15343;DHT22;7771;48.478;8.936;2023-03-03T06:34:21;3.90;99.90
15343;DHT22;7771;48.478;8.936;2023-03-03T06:36:48;3.90;99.90
15343;DHT22;7771;48.478;8.936;2023-03-03T06:39:14;3.90;99.90
15343;DHT22;7771;48.478;8.936;2023-03-03T06:41:42;3.90;99.90
15343;DHT22;7771;48.478;8.936;2023-03-03T06:44:09;4.00;99.90
15343;DHT22;7771;48.478;8.936;2023-03-03T06:46:36;4.00;99.90
15343;DHT22;7771;48.478;8.936;2023-03-03T06:51:33;4.10;99.90
15343;DHT22;7771;48.478;8.936;2023-03-03T06:53:59;4.10;99.90
15343;DHT22;7771;48.478;8.936;2023-03-03T06:56:25;4.10;99.90
15343;DHT22;7771;48.478;8.936;2023-03-03T06:58:55;4.20;99.90
15343;DHT22;7771;48.478;8.936;2023-03-03T07:01:21;4.20;99.90
15343;DHT22;7771;48.478;8.936;2023-03-03T07:03:47;4.20;99.90
15343;DHT22;7771;48.478;8.936;2023-03-03T07:06:22;4.30;99.90
15343;DHT22;7771;48.478;8.936;2023-03-03T07:08:49;4.30;99.90
15343;DHT22;7771;48.478;8.936;2023-03-03T07:11:17;4.30;99.90
15343;DHT22;7771;48.478;8.936;2023-03-03T07:13:44;4.40;99.90
15343;DHT22;7771;48.478;8.936;2023-03-03T07:16:11;4.40;99.90
15343;DHT22;7771;48.478;8.936;2023-03-03T07:18:42;4.40;99.90
15343;DHT22;7771;48.478;8.936;2023-03-03T07:23:39;4.40;99.90
15343;DHT22;7771;48.478;8.936;2023-03-03T07:26:11;4.40;99.90
15343;DHT22;7771;48.478;8.936;2023-03-03T07:28:40;4.50;99.90
15343;DHT22;7771;48.478;8.936;2023-03-03T07:31:16;4.50;99.90
15343;DHT22;7771;48.478;8.936;2023-03-03T07:33:34;4.50;99.90
15343;DHT22;7771;48.478;8.936;2023-03-03T07:36:01;4.60;99.90
15343;DHT22;7771;48.478;8.936;2023-03-03T07:38:33;4.60;99.90
15343;DHT22;7771;48.478;8.936;2023-03-03T07:40:58;4.60;99.90
15343;DHT22;7771;48.478;8.936;2023-03-03T07:43:30;4.60;99.90
15343;DHT22;7771;48.478;8.936;2023-03-03T07:46:00;4.70;99.90
15343;DHT22;7771;48.478;8.936;2023-03-03T07:48:25;4.70;99.90
15343;DHT22;7771;48.478;8.936;2023-03-03T07:50:52;4.70;99.90
15343;DHT22;7771;48.478;8.936;2023-03-03T07:53:21;4.80;99.90
15343;DHT22;7771;48.478;8.936;2023-03-03T07:55:47;4.80;99.90
15343;DHT22;7771;48.478;8.936;2023-03-03T07:58:19;4.90;99.90
15343;DHT22;7771;48.478;8.936;2023-03-03T08:03:29;5.00;99.90
15343;DHT22;7771;48.478;8.936;2023-03-03T08:05:56;5.10;99.90
15343;DHT22;7771;48.478;8.936;2023-03-03T08:08:27;5.10;99.90
15343;DHT22;7771;48.478;8.936;2023-03-03T08:10:57;5.10;99.90
15343;DHT22;7771;48.478;8.936;2023-03-03T08:13:39;5.10;99.90
15343;DHT22;7771;48.478;8.936;2023-03-03T08:16:25;5.10;99.90
15343;DHT22;7771;48.478;8.936;2023-03-03T08:18:51;5.20;99.90
15343;DHT22;7771;48.478;8.936;2023-03-03T08:21:19;5.20;99.90
15343;DHT22;7771;48.478;8.936;2023-03-03T08:23:45;5.30;99.90
15343;DHT22;7771;48.478;8.936;2023-03-03T08:26:13;5.30;99.90
15343;DHT22;7771;48.478;8.936;2023-03-03T08:31:08;5.50;99.90
15343;DHT22;7771;48.478;8.936;2023-03-03T08:33:34;5.50;99.90
15343;DHT22;7771;48.478;8.936;2023-03-03T08:36:01;5.60;99.90
15343;DHT22;7771;48.478;8.936;2023-03-03T08:38:28;5.60;99.90
15343;DHT22;7771;48.478;8.936;2023-03-03T08:40:54;5.70;99.90
15343;DHT22;7771;48.478;8.936;2023-03-03T08:43:21;5.80;99.90
15343;DHT22;7771;48.478;8.936;2023-03-03T08:45:48;5.80;99.90
15343;DHT22;7771;48.478;8.936;2023-03-03T08:48:15;5.90;99.90
15343;DHT22;7771;48.478;8.936;2023-03-03T08:50:42;6.00;99.90
15343;DHT22;7771;48.478;8.936;2023-03-03T08:53:09;6.10;99.90
15343;DHT22;7771;48.478;8.936;2023-03-03T08:55:36;6.20;99.90
15343;DHT22;7771;48.478;8.936;2023-03-03T08:58:03;6.30;99.90
15343;DHT22;7771;48.478;8.936;2023-03-03T09:00:29;6.40;99.90
15343;DHT22;7771;48.478;8.936;2023-03-03T09:02:57;6.40;99.90
15343;DHT22;7771;48.478;8.936;2023-03-03T09:05:24;6.50;99.90
15343;DHT22;7771;48.478;8.936;2023-03-03T09:07:51;6.60;99.90
15343;DHT22;7771;48.478;8.936;2023-03-03T09:10:21;6.70;99.90
15343;DHT22;7771;48.478;8.936;2023-03-03T09:12:47;6.70;99.90
15343;DHT22;7771;48.478;8.936;2023-03-03T09:15:18;6.90;99.90
15343;DHT22;7771;48.478;8.936;2023-03-03T09:17:43;7.00;99.90
15343;DHT22;7771;48.478;8.936;2023-03-03T09:20:26;7.10;99.90
15343;DHT22;7771;48.478;8.936;2023-03-03T09:22:53;7.20;99.90
15343;DHT22;7771;48.478;8.936;2023-03-03T09:25:35;7.30;99.90
15343;DHT22;7771;48.478;8.936;2023-03-03T09:28:26;7.40;99.90
15343;DHT22;7771;48.478;8.936;2023-03-03T09:30:51;7.60;99.90
15343;DHT22;7771;48.478;8.936;2023-03-03T09:33:22;7.70;99.90
15343;DHT22;7771;48.478;8.936;2023-03-03T09:35:49;7.90;99.90
15343;DHT22;7771;48.478;8.936;2023-03-03T09:38:24;7.90;99.90
15343;DHT22;7771;48.478;8.936;2023-03-03T09:40:50;8.00;99.90
15343;DHT22;7771;48.478;8.936;2023-03-03T09:43:35;8.10;99.90
15343;DHT22;7771;48.478;8.936;2023-03-03T09:48:49;8.30;99.90
15343;DHT22;7771;48.478;8.936;2023-03-03T09:51:18;8.40;99.90
15343;DHT22;7771;48.478;8.936;2023-03-03T09:56:24;8.40;99.90
15343;DHT22;7771;48.478;8.936;2023-03-03T10:01:38;8.50;99.90
15343;DHT22;7771;48.478;8.936;2023-03-03T10:04:32;8.60;99.90
15343;DHT22;7771;48.478;8.936;2023-03-03T10:08:07;8.70;99.90
15343;DHT22;7771;48.478;8.936;2023-03-03T10:09:45;8.80;99.90
15343;DHT22;7771;48.478;8.936;2023-03-03T10:12:24;8.90;99.90
15343;DHT22;7771;48.478;8.936;2023-03-03T10:20:16;9.10;99.90
15343;DHT22;7771;48.478;8.936;2023-03-03T10:22:42;9.20;99.90
15343;DHT22;7771;48.478;8.936;2023-03-03T10:28:01;9.20;99.90
15343;DHT22;7771;48.478;8.936;2023-03-03T10:30:34;9.20;99.90
15343;DHT22;7771;48.478;8.936;2023-03-03T10:33:04;9.20;99.90
15343;DHT22;7771;48.478;8.936;2023-03-03T10:38:16;9.40;99.90
15343;DHT22;7771;48.478;8.936;2023-03-03T10:40:57;9.50;99.90
15343;DHT22;7771;48.478;8.936;2023-03-03T10:51:33;9.80;99.90
15343;DHT22;7771;48.478;8.936;2023-03-03T10:54:11;9.90;99.90
15343;DHT22;7771;48.478;8.936;2023-03-03T10:56:40;10.00;99.90
15343;DHT22;7771;48.478;8.936;2023-03-03T11:02:00;10.10;99.90
15343;DHT22;7771;48.478;8.936;2023-03-03T11:04:31;10.10;99.90
15343;DHT22;7771;48.478;8.936;2023-03-03T11:07:00;10.10;99.90
15343;DHT22;7771;48.478;8.936;2023-03-03T11:09:48;10.20;99.90
15343;DHT22;7771;48.478;8.936;2023-03-03T11:12:26;10.30;99.90
15343;DHT22;7771;48.478;8.936;2023-03-03T11:14:54;10.30;99.90
15343;DHT22;7771;48.478;8.936;2023-03-03T11:17:47;10.40;99.90
15343;DHT22;7771;48.478;8.936;2023-03-03T11:22:55;10.40;99.90
15343;DHT22;7771;48.478;8.936;2023-03-03T11:25:22;10.50;99.90
15343;DHT22;7771;48.478;8.936;2023-03-03T11:28:11;10.50;99.90
15343;DHT22;7771;48.478;8.936;2023-03-03T11:31:00;10.70;99.90
15343;DHT22;7771;48.478;8.936;2023-03-03T11:38:44;11.10;99.90
15343;DHT22;7771;48.478;8.936;2023-03-03T11:41:16;11.20;99.90
15343;DHT22;7771;48.478;8.936;2023-03-03T11:44:02;11.20;99.90
15343;DHT22;7771;48.478;8.936;2023-03-03T11:46:31;11.30;99.90
15343;DHT22;7771;48.478;8.936;2023-03-03T11:49:02;11.40;99.90
15343;DHT22;7771;48.478;8.936;2023-03-03T11:51:43;11.40;99.90
15343;DHT22;7771;48.478;8.936;2023-03-03T11:54:09;11.40;99.90
15343;DHT22;7771;48.478;8.936;2023-03-03T11:56:40;11.50;99.90
15343;DHT22;7771;48.478;8.936;2023-03-03T11:59:35;11.50;99.90
15343;DHT22;7771;48.478;8.936;2023-03-03T12:02:02;11.60;99.90
15343;DHT22;7771;48.478;8.936;2023-03-03T12:05:11;11.70;99.90
15343;DHT22;7771;48.478;8.936;2023-03-03T12:07:44;11.70;99.90
15343;DHT22;7771;48.478;8.936;2023-03-03T12:10:31;11.80;99.90
15343;DHT22;7771;48.478;8.936;2023-03-03T12:13:30;11.80;99.90
15343;DHT22;7771;48.478;8.936;2023-03-03T12:15:45;12.00;99.90
15343;DHT22;7771;48.478;8.936;2023-03-03T12:18:19;12.00;99.90
15343;DHT22;7771;48.478;8.936;2023-03-03T12:26:46;12.20;99.90
15343;DHT22;7771;48.478;8.936;2023-03-03T12:29:20;12.20;99.90
15343;DHT22;7771;48.478;8.936;2023-03-03T12:31:52;12.20;99.90
15343;DHT22;7771;48.478;8.936;2023-03-03T12:34:18;12.20;99.90
15343;DHT22;7771;48.478;8.936;2023-03-03T12:36:57;12.20;99.90
15343;DHT22;7771;48.478;8.936;2023-03-03T12:39:31;12.20;99.90
15343;DHT22;7771;48.478;8.936;2023-03-03T12:43:11;12.20;99.90
15343;DHT22;7771;48.478;8.936;2023-03-03T12:44:48;12.20;99.90
15343;DHT22;7771;48.478;8.936;2023-03-03T12:47:15;12.20;99.80
15343;DHT22;7771;48.478;8.936;2023-03-03T12:49:44;12.30;99.90
15343;DHT22;7771;48.478;8.936;2023-03-03T12:54:53;12.30;99.70
15343;DHT22;7771;48.478;8.936;2023-03-03T12:57:39;12.30;99.70
15343;DHT22;7771;48.478;8.936;2023-03-03T13:00:27;12.30;99.50
15343;DHT22;7771;48.478;8.936;2023-03-03T13:03:02;12.30;99.60
15343;DHT22;7771;48.478;8.936;2023-03-03T13:05:32;12.30;99.60
15343;DHT22;7771;48.478;8.936;2023-03-03T13:08:03;12.30;99.50
15343;DHT22;7771;48.478;8.936;2023-03-03T13:10:33;12.40;99.20
15343;DHT22;7771;48.478;8.936;2023-03-03T13:13:02;12.40;99.40
15343;DHT22;7771;48.478;8.936;2023-03-03T13:15:29;12.50;99.60
15343;DHT22;7771;48.478;8.936;2023-03-03T13:18:03;12.60;99.10
15343;DHT22;7771;48.478;8.936;2023-03-03T13:23:19;12.60;98.60
15343;DHT22;7771;48.478;8.936;2023-03-03T13:25:49;12.70;98.20
15343;DHT22;7771;48.478;8.936;2023-03-03T13:28:23;12.70;98.00
15343;DHT22;7771;48.478;8.936;2023-03-03T13:30:48;12.70;98.10
15343;DHT22;7771;48.478;8.936;2023-03-03T13:33:16;12.70;98.30
15343;DHT22;7771;48.478;8.936;2023-03-03T13:35:49;12.60;98.20
15343;DHT22;7771;48.478;8.936;2023-03-03T13:38:20;12.60;98.20
15343;DHT22;7771;48.478;8.936;2023-03-03T13:40:47;12.60;98.30
15343;DHT22;7771;48.478;8.936;2023-03-03T13:43:18;12.70;98.20
15343;DHT22;7771;48.478;8.936;2023-03-03T13:45:54;12.70;98.20
15343;DHT22;7771;48.478;8.936;2023-03-03T13:48:43;12.70;98.20
15343;DHT22;7771;48.478;8.936;2023-03-03T13:51:17;12.80;97.90
15343;DHT22;7771;48.478;8.936;2023-03-03T13:53:51;12.80;98.00
15343;DHT22;7771;48.478;8.936;2023-03-03T13:56:23;12.80;98.10
15343;DHT22;7771;48.478;8.936;2023-03-03T13:58:49;12.80;98.20
15343;DHT22;7771;48.478;8.936;2023-03-03T14:01:25;12.80;98.20
15343;DHT22;7771;48.478;8.936;2023-03-03T14:06:31;12.80;97.50
15343;DHT22;7771;48.478;8.936;2023-03-03T14:08:59;12.80;97.60
15343;DHT22;7771;48.478;8.936;2023-03-03T14:11:45;12.80;97.70
15343;DHT22;7771;48.478;8.936;2023-03-03T14:14:25;12.70;97.60
15343;DHT22;7771;48.478;8.936;2023-03-03T14:17:24;12.60;97.40
15343;DHT22;7771;48.478;8.936;2023-03-03T14:19:33;12.70;96.80
15343;DHT22;7771;48.478;8.936;2023-03-03T14:22:41;12.60;96.70
15343;DHT22;7771;48.478;8.936;2023-03-03T14:25:03;12.40;96.90
15343;DHT22;7771;48.478;8.936;2023-03-03T14:27:34;12.30;97.40
15343;DHT22;7771;48.478;8.936;2023-03-03T14:30:23;12.30;97.20
15343;DHT22;7771;48.478;8.936;2023-03-03T14:32:42;12.20;97.10
15343;DHT22;7771;48.478;8.936;2023-03-03T14:35:14;12.20;97.10
15343;DHT22;7771;48.478;8.936;2023-03-03T14:37:42;12.20;97.10
15343;DHT22;7771;48.478;8.936;2023-03-03T14:40:19;12.10;97.40
15343;DHT22;7771;48.478;8.936;2023-03-03T14:42:54;12.10;97.30
15343;DHT22;7771;48.478;8.936;2023-03-03T14:45:22;12.00;96.90
15343;DHT22;7771;48.478;8.936;2023-03-03T14:47:46;12.00;96.90
15343;DHT22;7771;48.478;8.936;2023-03-03T14:50:30;12.00;97.30
15343;DHT22;7771;48.478;8.936;2023-03-03T14:53:04;11.90;97.00
15343;DHT22;7771;48.478;8.936;2023-03-03T14:55:31;11.90;97.00
15343;DHT22;7771;48.478;8.936;2023-03-03T14:57:56;11.90;97.00
15343;DHT22;7771;48.478;8.936;2023-03-03T15:00:28;11.80;97.00
15343;DHT22;7771;48.478;8.936;2023-03-03T15:03:19;11.80;97.00
15343;DHT22;7771;48.478;8.936;2023-03-03T15:05:30;11.90;96.70
15343;DHT22;7771;48.478;8.936;2023-03-03T15:10:40;12.00;96.50
15343;DHT22;7771;48.478;8.936;2023-03-03T15:15:59;12.00;96.30
15343;DHT22;7771;48.478;8.936;2023-03-03T15:18:17;12.00;96.00
15343;DHT22;7771;48.478;8.936;2023-03-03T15:21:04;11.90;96.10
15343;DHT22;7771;48.478;8.936;2023-03-03T15:24:07;11.90;96.00
15343;DHT22;7771;48.478;8.936;2023-03-03T15:26:20;11.90;96.10
15343;DHT22;7771;48.478;8.936;2023-03-03T15:31:44;11.90;95.80
15343;DHT22;7771;48.478;8.936;2023-03-03T15:36:54;11.80;95.70
15343;DHT22;7771;48.478;8.936;2023-03-03T15:39:30;11.80;95.70
15343;DHT22;7771;48.478;8.936;2023-03-03T15:42:03;11.70;95.60
15343;DHT22;7771;48.478;8.936;2023-03-03T15:47:30;11.60;95.70
15343;DHT22;7771;48.478;8.936;2023-03-03T15:53:14;11.30;95.80
15343;DHT22;7771;48.478;8.936;2023-03-03T15:55:27;11.20;96.00
15343;DHT22;7771;48.478;8.936;2023-03-03T15:57:57;11.10;96.30
15343;DHT22;7771;48.478;8.936;2023-03-03T16:00:48;11.10;96.60
15343;DHT22;7771;48.478;8.936;2023-03-03T16:03:13;11.10;96.80
15343;DHT22;7771;48.478;8.936;2023-03-03T16:05:44;10.90;97.00
15343;DHT22;7771;48.478;8.936;2023-03-03T16:08:10;10.90;97.30
15343;DHT22;7771;48.478;8.936;2023-03-03T16:10:54;10.90;97.80
15343;DHT22;7771;48.478;8.936;2023-03-03T16:13:20;10.90;97.80
15343;DHT22;7771;48.478;8.936;2023-03-03T16:18:28;10.70;98.20
15343;DHT22;7771;48.478;8.936;2023-03-03T16:23:55;10.50;98.50
15343;DHT22;7771;48.478;8.936;2023-03-03T16:27:03;10.40;98.60
15343;DHT22;7771;48.478;8.936;2023-03-03T16:30:32;10.30;98.80
15343;DHT22;7771;48.478;8.936;2023-03-03T16:32:11;10.20;99.20
15343;DHT22;7771;48.478;8.936;2023-03-03T16:37:31;10.10;99.30
15343;DHT22;7771;48.478;8.936;2023-03-03T16:40:19;10.10;99.30
15343;DHT22;7771;48.478;8.936;2023-03-03T16:42:44;10.10;99.70
15343;DHT22;7771;48.478;8.936;2023-03-03T16:45:19;10.00;99.50
15343;DHT22;7771;48.478;8.936;2023-03-03T16:47:50;10.00;99.50
15343;DHT22;7771;48.478;8.936;2023-03-03T16:50:24;9.90;99.60
15343;DHT22;7771;48.478;8.936;2023-03-03T16:53:09;9.90;99.80
15343;DHT22;7771;48.478;8.936;2023-03-03T16:55:35;9.90;99.90
15343;DHT22;7771;48.478;8.936;2023-03-03T16:58:14;9.80;99.90
15343;DHT22;7771;48.478;8.936;2023-03-03T17:01:00;9.80;99.90
15343;DHT22;7771;48.478;8.936;2023-03-03T17:03:29;9.70;99.90
15343;DHT22;7771;48.478;8.936;2023-03-03T17:05:56;9.70;99.90
15343;DHT22;7771;48.478;8.936;2023-03-03T17:11:06;9.60;99.90
15343;DHT22;7771;48.478;8.936;2023-03-03T17:13:40;9.50;99.90
15343;DHT22;7771;48.478;8.936;2023-03-03T17:18:54;9.30;99.90
15343;DHT22;7771;48.478;8.936;2023-03-03T17:21:23;9.20;99.90
15343;DHT22;7771;48.478;8.936;2023-03-03T17:23:52;9.10;99.90
15343;DHT22;7771;48.478;8.936;2023-03-03T17:29:45;9.00;99.90
15343;DHT22;7771;48.478;8.936;2023-03-03T17:34:42;8.80;99.90
15343;DHT22;7771;48.478;8.936;2023-03-03T17:37:13;8.70;99.90
15343;DHT22;7771;48.478;8.936;2023-03-03T17:40:02;8.70;99.90
15343;DHT22;7771;48.478;8.936;2023-03-03T17:42:32;8.60;99.90
15343;DHT22;7771;48.478;8.936;2023-03-03T17:45:07;8.50;99.90
15343;DHT22;7771;48.478;8.936;2023-03-03T17:50:36;8.40;99.90
15343;DHT22;7771;48.478;8.936;2023-03-03T17:55:54;8.30;99.90
15343;DHT22;7771;48.478;8.936;2023-03-03T18:03:57;8.20;99.90
15343;DHT22;7771;48.478;8.936;2023-03-03T18:12:14;7.90;99.90
15343;DHT22;7771;48.478;8.936;2023-03-03T18:17:29;7.70;99.90